Wilkinson, Indiana
Current Conditions -  °F | °C
As of 12:14 AM on Monday 20 Oct 2014 (Local Time) from KMQJ Reporting Station
Clear Clear  
Wind Chill:   Ceiling: Unl
Heat Index:   Visibility: 10mi
Dew Point:   Wind: 5mph
Humidity: 81%   Direction: 210°SSW
Pressure: 30.04"   Gusts: NA
Location:  39.89°N, 85.61°W
Report Text: KMQJ 200414Z AUTO 21004KT 10SM CLR 07/04 A3004 RMK AO1
Loading
Personal Weather Stations






























Interactive Weather Map
Tropical Storm Tracking
New forecast layout! Learn more

10-Day Weather Forecast

Advertisements
Track Severe Weather on mobile